Glory Ocean — 9VDE7 — position and weather

sailwx.info

Track history (hours):
 
Tides and Currents Weather Stations Pressure Air Temp Water Temp Dewpoint Dewpoint Depression Visibility Wind Speed Wind Dir Waves Ship Positions

Glory Ocean

Last reported at 2016-Dec-05 08:27 UTC. Time now 2016-Dec-06 14:10 UTC.
Position N 36°26' E 014°37'.

Length 139 m; draft 6.1 m.

Type: Cargo ship. MMSI: 564700000.

Date/timePositionNaut miles runAvg speedWind from/ knotsBaromVisibWave heightAir tempDewpointWater temp
2016-Dec-05 08:27N 36°26' E 014°37'1112.1
2016-Dec-05 07:33N 36°29' E 014°24'1212.2
2016-Dec-05 06:33N 36°36' E 014°12'1212.3
2016-Dec-05 05:33N 36°42' E 013°58'1212.2
2016-Dec-05 04:33N 36°48' E 013°45'1211.9
2016-Dec-05 03:33N 36°54' E 013°33'  
2016-Dec-02 01:32N 36°06' W 005°12'4 0.2
2016-Dec-01 08:27N 36°03' W 005°15'910.2
2016-Dec-01 07:33N 35°59' W 005°25'  
Track history (hours):
 
Tides and Currents Weather Stations Pressure Air Temp Water Temp Dewpoint Dewpoint Depression Visibility Wind Speed Wind Dir Waves Ship Positions

Glory Ocean

Last reported at 2016-Dec-05 08:27 UTC. Time now 2016-Dec-06 14:10 UTC.
Position N 36°26' E 014°37'.

Length 139 m; draft 6.1 m.

Type: Cargo ship. MMSI: 564700000.

Date/timePositionNaut miles runAvg speedWind from/ knotsBaromVisibWave heightAir tempDewpointWater temp
2016-Dec-05 08:27N 36°26' E 014°37'1112.1
2016-Dec-05 07:33N 36°29' E 014°24'1212.2
2016-Dec-05 06:33N 36°36' E 014°12'1212.3
2016-Dec-05 05:33N 36°42' E 013°58'1212.2
2016-Dec-05 04:33N 36°48' E 013°45'1211.9
2016-Dec-05 03:33N 36°54' E 013°33'  
2016-Dec-02 01:32N 36°06' W 005°12'4 0.2
2016-Dec-01 08:27N 36°03' W 005°15'910.2
2016-Dec-01 07:33N 35°59' W 005°25'  

Dump ship's entire track history